TimeCDT,TemperatureF,Dew PointF,Humidity,Sea Level PressureIn,VisibilityMPH,Wind Direction,Wind SpeedMPH,Gust SpeedMPH,PrecipitationIn,Events,Conditions,WindDirDegrees,DateUTC
12:48 AM,71.6,71.6,100,29.88,6.0,East,4.6,-,N/A,,Mostly Cloudy,100,2012-10-08 05:48:00
1:44 AM,69.8,69.8,100,29.89,6.0,NE,4.6,-,N/A,,Mostly Cloudy,50,2012-10-08 06:44:00
2:40 AM,71.6,71.6,100,29.88,6.0,Calm,Calm,-,N/A,,Mostly Cloudy,0,2012-10-08 07:40:00
3:45 AM,69.8,69.8,100,29.90,6.0,Calm,Calm,-,N/A,,Mostly Cloudy,0,2012-10-08 08:45:00
4:45 AM,71.6,71.6,100,29.89,7.0,Calm,Calm,-,N/A,,Mostly Cloudy,0,2012-10-08 09:45:00
5:49 AM,71.6,71.6,100,29.91,6.0,Calm,Calm,-,N/A,,Mostly Cloudy,0,2012-10-08 10:49:00
6:49 AM,73.4,73.4,100,29.91,6.0,Calm,Calm,-,N/A,,Mostly Cloudy,0,2012-10-08 11:49:00
7:41 AM,73.4,73.4,100,29.94,7.0,NNE,4.6,-,N/A,,Mostly Cloudy,30,2012-10-08 12:41:00
8:40 AM,75.2,75.2,100,29.96,7.0,North,3.5,-,N/A,,Mostly Cloudy,10,2012-10-08 13:40:00
9:40 AM,78.8,75.2,89,29.99,7.0,North,4.6,-,N/A,,Mostly Cloudy,360,2012-10-08 14:40:00
10:40 AM,78.8,75.2,89,29.98,7.0,NE,4.6,-,N/A,,Mostly Cloudy,40,2012-10-08 15:40:00
11:43 AM,80.6,73.4,79,29.97,7.0,NE,9.2,-,N/A,,Mostly Cloudy,50,2012-10-08 16:43:00
12:44 PM,80.6,73.4,79,29.92,7.0,NNE,4.6,-,N/A,,Mostly Cloudy,20,2012-10-08 17:44:00
1:43 PM,82.4,75.2,79,29.92,7.0,ENE,6.9,-,N/A,,Mostly Cloudy,60,2012-10-08 18:43:00
2:49 PM,82.4,73.4,74,29.89,7.0,ENE,3.5,-,N/A,,Mostly Cloudy,60,2012-10-08 19:49:00
3:50 PM,80.6,75.2,84,29.91,7.0,ENE,4.6,-,N/A,,Mostly Cloudy,70,2012-10-08 20:50:00
4:51 PM,80.6,73.4,79,29.89,7.0,East,9.2,-,N/A,,Mostly Cloudy,100,2012-10-08 21:51:00
5:49 PM,78.8,75.2,89,29.90,7.0,East,6.9,-,N/A,,Mostly Cloudy,100,2012-10-08 22:49:00
6:49 PM,77.0,71.6,83,29.88,7.0,Calm,Calm,-,N/A,,Mostly Cloudy,0,2012-10-08 23:49:00
7:43 PM,75.2,73.4,94,29.94,7.0,Calm,Calm,-,N/A,,Mostly Cloudy,0,2012-10-09 00:43:00
8:48 PM,73.4,71.6,94,29.96,7.0,Calm,Calm,-,N/A,,Mostly Cloudy,0,2012-10-09 01:48:00
9:40 PM,73.4,71.6,94,30.01,7.0,Calm,Calm,-,N/A,,Mostly Cloudy,0,2012-10-09 02:40:00
10:41 PM,71.6,69.8,94,30.00,7.0,Calm,Calm,-,N/A,,Mostly Cloudy,0,2012-10-09 03:41:00
11:40 PM,71.6,69.8,94,29.99,7.0,Calm,Calm,-,N/A,,Mostly Cloudy,0,2012-10-09 04:40:00